Terminal Aerodrome Forecast
Issued by NWS Kansas City/Pleasant Hill, MO

Home | Current Version | Previous Version | Text Only | Print | Product List | Glossary On
Versions: 1 2 3 4 5 6 7 8 9 10 11 12 13 14 15 16 17 18
000
FTUS43 KEAX 010500
TAFMCI
TAF
KMCI 010520Z 0106/0206 14004KT 4SM -SN SCT015 OVC025
     FM010900 VRB03KT P6SM BKN025
     FM011400 28005KT 2SM -SN OVC015
     FM011800 32006KT P6SM OVC050=

USA.gov is the U.S. government's official web portal to all federal, state and local government web resources and services.